Time;durP1;ratioP1;P1;durP2;ratioP2;P2;SDS_P1;SDS_P2;PMS_P1;PMS_P2;Temp;Humidity;BMP_temperature;BMP_pressure;BME280_temperature;BME280_humidity;BME280_pressure;Samples;Min_cycle;Max_cycle;Signal;HPM_P1;HPM_P2
2021/01/06 00:00:01;;;;;;;47.20;21.90;;;;;;;;;;6190596;23;20104;-86
2021/01/06 00:02:28;;;;;;;56.90;23.75;;;;;;;;;;6189716;23;20021;-86
2021/01/06 00:04:54;;;;;;;44.35;20.25;;;;;;;;;;6189748;23;20027;-86
2021/01/06 00:07:20;;;;;;;48.88;21.58;;;;;;;;;;6190201;23;20029;-86
2021/01/06 00:09:46;;;;;;;52.30;21.52;;;;;;;;;;6190135;23;20021;-85
2021/01/06 00:12:12;;;;;;;54.80;21.98;;;;;;;;;;6190370;23;20032;-86
2021/01/06 00:14:38;;;;;;;52.20;20.90;;;;;;;;;;6190674;23;20025;-86
2021/01/06 00:17:04;;;;;;;49.92;21.13;;;;;;;;;;6189870;23;20017;-86
2021/01/06 00:19:31;;;;;;;44.13;20.63;;;;;;;;;;6190661;23;20051;-86
2021/01/06 00:21:57;;;;;;;47.33;20.05;;;;;;;;;;6189949;23;20025;-86
2021/01/06 00:24:23;;;;;;;46.10;20.63;;;;;;;;;;6190051;23;20024;-86
2021/01/06 00:26:49;;;;;;;53.65;21.90;;;;;;;;;;6189684;23;20024;-86
2021/01/06 00:29:15;;;;;;;48.25;22.20;;;;;;;;;;6190445;23;20113;-85
2021/01/06 00:31:43;;;;;;;47.33;22.08;;;;;;;;;;6190400;23;20027;-86
2021/01/06 00:34:10;;;;;;;45.55;19.95;;;;;;;;;;6189036;23;20020;-85
2021/01/06 00:36:37;;;;;;;47.08;20.38;;;;;;;;;;6189685;23;20353;-85
2021/01/06 00:39:05;;;;;;;48.05;22.50;;;;;;;;;;6189997;23;20028;-86
2021/01/06 00:41:33;;;;;;;44.17;19.70;;;;;;;;;;6190014;23;20025;-86
2021/01/06 00:43:59;;;;;;;45.83;20.15;;;;;;;;;;6189771;23;20071;-86
2021/01/06 00:46:29;;;;;;;49.03;20.52;;;;;;;;;;6189647;23;20021;-85
2021/01/06 00:48:55;;;;;;;45.30;20.98;;;;;;;;;;6190757;23;20724;-86
2021/01/06 00:51:21;;;;;;;53.72;22.00;;;;;;;;;;6190958;23;20017;-86
2021/01/06 00:53:48;;;;;;;41.67;20.27;;;;;;;;;;6189858;23;20052;-86
2021/01/06 00:56:14;;;;;;;42.53;18.85;;;;;;;;;;6189600;23;20032;-86
2021/01/06 00:58:39;;;;;;;47.72;23.50;;;;;;;;;;6190427;23;20077;-86
2021/01/06 01:01:05;;;;;;;43.70;20.40;;;;;;;;;;6190301;23;20060;-86
2021/01/06 01:03:31;;;;;;;41.92;21.23;;;;;;;;;;6189830;23;20324;-86
2021/01/06 01:05:58;;;;;;;42.75;18.95;;;;;;;;;;6190290;23;20076;-86
2021/01/06 01:08:24;;;;;;;45.15;20.10;;;;;;;;;;6190508;23;20017;-85
2021/01/06 01:10:52;;;;;;;38.95;18.83;;;;;;;;;;6189679;23;20017;-86
2021/01/06 01:13:20;;;;;;;45.47;21.10;;;;;;;;;;6190013;23;20071;-85
2021/01/06 01:15:48;;;;;;;45.72;19.55;;;;;;;;;;6190289;23;20357;-85
2021/01/06 01:18:17;;;;;;;44.30;20.15;;;;;;;;;;6189422;23;20028;-86
2021/01/06 01:20:44;;;;;;;44.92;20.40;;;;;;;;;;6190183;23;20021;-86
2021/01/06 01:23:11;;;;;;;45.60;18.13;;;;;;;;;;6189477;23;20024;-86
2021/01/06 01:25:37;;;;;;;43.67;19.95;;;;;;;;;;6189781;23;20025;-86
2021/01/06 01:28:04;;;;;;;44.58;18.00;;;;;;;;;;6189693;23;20023;-86
2021/01/06 01:30:30;;;;;;;47.25;19.60;;;;;;;;;;6189267;23;20029;-86
2021/01/06 01:32:56;;;;;;;47.22;20.02;;;;;;;;;;6189621;23;20438;-86
2021/01/06 01:35:24;;;;;;;40.78;18.15;;;;;;;;;;6189354;23;20025;-85
2021/01/06 01:37:51;;;;;;;43.53;19.42;;;;;;;;;;6188937;23;20021;-86
2021/01/06 01:40:19;;;;;;;37.35;19.48;;;;;;;;;;6189227;23;20362;-86
2021/01/06 01:42:45;;;;;;;43.03;20.20;;;;;;;;;;6189509;23;20025;-86
2021/01/06 01:45:13;;;;;;;39.85;20.30;;;;;;;;;;6189237;23;20351;-85
2021/01/06 01:47:47;;;;;;;47.95;21.15;;;;;;;;;;6189451;23;20025;-86
2021/01/06 01:50:13;;;;;;;50.20;20.83;;;;;;;;;;6189904;23;20517;-86
2021/01/06 01:52:43;;;;;;;47.47;21.00;;;;;;;;;;6188944;23;20013;-86
2021/01/06 01:55:12;;;;;;;39.65;19.98;;;;;;;;;;6189244;23;20079;-85
2021/01/06 01:57:40;;;;;;;48.13;21.20;;;;;;;;;;6189160;23;20017;-86
2021/01/06 02:00:09;;;;;;;43.67;21.42;;;;;;;;;;6189264;23;20025;-86
2021/01/06 02:02:44;;;;;;;52.65;23.27;;;;;;;;;;6188280;23;20024;-86
2021/01/06 02:05:13;;;;;;;52.97;23.23;;;;;;;;;;6188653;23;20017;-85
2021/01/06 02:07:45;;;;;;;45.20;21.10;;;;;;;;;;6189316;23;20025;-85
2021/01/06 02:10:15;;;;;;;45.75;20.65;;;;;;;;;;6189611;23;20025;-86
2021/01/06 02:12:46;;;;;;;51.33;20.90;;;;;;;;;;6188628;23;20025;-85
2021/01/06 02:15:19;;;;;;;47.08;21.10;;;;;;;;;;6189872;23;20017;-86
2021/01/06 02:17:46;;;;;;;49.10;22.98;;;;;;;;;;6189007;23;20700;-86
2021/01/06 02:20:14;;;;;;;46.20;20.25;;;;;;;;;;6188929;23;20028;-85
2021/01/06 02:22:40;;;;;;;47.25;20.35;;;;;;;;;;6187989;23;20021;-86
2021/01/06 02:25:09;;;;;;;52.08;20.85;;;;;;;;;;6187021;23;20071;-85
2021/01/06 02:27:35;;;;;;;46.85;20.20;;;;;;;;;;6186214;23;20036;-85
2021/01/06 02:30:01;;;;;;;52.83;23.33;;;;;;;;;;6186810;23;20032;-85
2021/01/06 02:32:28;;;;;;;50.70;22.23;;;;;;;;;;6188001;23;20021;-85
2021/01/06 02:34:54;;;;;;;50.75;23.58;;;;;;;;;;6187921;23;20100;-85
2021/01/06 02:37:20;;;;;;;47.53;20.83;;;;;;;;;;6187866;23;20020;-85
2021/01/06 02:39:49;;;;;;;52.03;22.83;;;;;;;;;;6188147;23;20098;-85
2021/01/06 02:42:15;;;;;;;40.65;18.88;;;;;;;;;;6188195;23;20025;-85
2021/01/06 02:44:41;;;;;;;54.90;21.48;;;;;;;;;;6187885;23;20025;-85
2021/01/06 02:47:07;;;;;;;45.92;21.38;;;;;;;;;;6187679;23;20052;-85
2021/01/06 02:49:33;;;;;;;57.95;22.35;;;;;;;;;;6187465;23;20678;-85
2021/01/06 02:52:03;;;;;;;47.83;21.35;;;;;;;;;;6188016;23;20039;-85
2021/01/06 02:54:34;;;;;;;48.25;20.55;;;;;;;;;;6188151;23;20295;-85
2021/01/06 02:57:01;;;;;;;49.80;21.02;;;;;;;;;;6188281;23;20346;-85
2021/01/06 02:59:30;;;;;;;52.47;21.00;;;;;;;;;;6187746;23;20023;-85
2021/01/06 03:01:57;;;;;;;58.42;23.30;;;;;;;;;;6187888;23;20025;-85
2021/01/06 03:04:24;;;;;;;55.03;23.40;;;;;;;;;;6187609;23;20369;-85
2021/01/06 03:06:53;;;;;;;49.65;22.08;;;;;;;;;;6187588;23;20025;-85
2021/01/06 03:09:25;;;;;;;56.05;22.92;;;;;;;;;;6187590;23;20020;-85
2021/01/06 03:11:51;;;;;;;51.85;22.25;;;;;;;;;;6188252;23;20021;-85
2021/01/06 03:14:18;;;;;;;49.88;23.02;;;;;;;;;;6187518;23;20021;-85
2021/01/06 03:16:44;;;;;;;48.85;19.70;;;;;;;;;;6188044;23;20438;-85
2021/01/06 03:19:12;;;;;;;45.60;21.65;;;;;;;;;;6187612;23;20027;-85
2021/01/06 03:21:39;;;;;;;49.03;22.52;;;;;;;;;;6187694;23;20379;-85
2021/01/06 03:24:06;;;;;;;50.22;21.30;;;;;;;;;;6187145;23;20017;-85
2021/01/06 03:26:32;;;;;;;56.30;22.88;;;;;;;;;;6188014;23;20438;-85
2021/01/06 03:28:58;;;;;;;50.05;20.23;;;;;;;;;;6187693;23;20429;-85
2021/01/06 03:31:30;;;;;;;42.03;19.13;;;;;;;;;;6186962;23;20020;-85
2021/01/06 03:33:59;;;;;;;50.00;23.13;;;;;;;;;;6187699;23;20362;-84
2021/01/06 03:36:29;;;;;;;44.22;21.35;;;;;;;;;;6187380;23;20035;-85
2021/01/06 03:38:57;;;;;;;45.28;20.30;;;;;;;;;;6187163;23;20538;-85
2021/01/06 03:41:24;;;;;;;47.40;22.02;;;;;;;;;;6187389;23;20450;-85
2021/01/06 03:43:52;;;;;;;48.85;21.13;;;;;;;;;;6187659;23;20021;-84
2021/01/06 03:46:21;;;;;;;44.35;20.35;;;;;;;;;;6186923;23;20439;-84
2021/01/06 03:48:58;;;;;;;50.40;23.40;;;;;;;;;;6187354;23;20020;-84
2021/01/06 03:51:28;;;;;;;51.65;21.83;;;;;;;;;;6187332;23;20018;-85
2021/01/06 03:53:57;;;;;;;50.45;22.35;;;;;;;;;;6186896;23;20032;-85
2021/01/06 03:56:26;;;;;;;43.97;18.65;;;;;;;;;;6187192;23;20025;-85
2021/01/06 03:58:54;;;;;;;43.05;19.38;;;;;;;;;;6187989;23;20024;-85
2021/01/06 04:01:42;;;;;;;52.38;20.85;;;;;;;;;;6186960;23;20025;-85
2021/01/06 04:04:16;;;;;;;48.47;19.73;;;;;;;;;;6187237;23;20017;-85
2021/01/06 04:06:43;;;;;;;48.42;21.38;;;;;;;;;;6187294;23;20028;-84
2021/01/06 04:09:17;;;;;;;48.22;21.23;;;;;;;;;;6186987;23;20024;-85
2021/01/06 04:11:47;;;;;;;50.35;22.98;;;;;;;;;;6187604;23;20048;-85
2021/01/06 04:14:13;;;;;;;51.08;21.33;;;;;;;;;;6186945;23;20013;-85
2021/01/06 04:16:39;;;;;;;48.05;21.38;;;;;;;;;;6187011;23;20468;-85
2021/01/06 04:19:05;;;;;;;50.47;21.08;;;;;;;;;;6187188;23;20032;-84
2021/01/06 04:21:31;;;;;;;44.65;20.38;;;;;;;;;;6186571;23;20051;-85
2021/01/06 04:23:57;;;;;;;39.75;19.77;;;;;;;;;;6187572;23;20017;-85
2021/01/06 04:26:23;;;;;;;46.38;21.77;;;;;;;;;;6187126;23;20083;-84
2021/01/06 04:28:50;;;;;;;41.97;20.33;;;;;;;;;;6186607;23;20079;-85
2021/01/06 04:31:20;;;;;;;45.13;22.50;;;;;;;;;;6186279;23;20028;-85
2021/01/06 04:33:48;;;;;;;50.33;22.95;;;;;;;;;;6187001;23;20358;-85
2021/01/06 04:36:17;;;;;;;51.45;21.13;;;;;;;;;;6186429;23;20021;-85
2021/01/06 04:38:47;;;;;;;43.38;20.42;;;;;;;;;;6187082;23;20044;-85
2021/01/06 04:41:25;;;;;;;41.80;20.45;;;;;;;;;;6186749;23;20381;-85
2021/01/06 04:43:58;;;;;;;49.42;21.35;;;;;;;;;;6186128;23;20017;-85
2021/01/06 04:46:32;;;;;;;48.42;22.27;;;;;;;;;;6186546;23;20025;-85
2021/01/06 04:49:06;;;;;;;53.20;23.13;;;;;;;;;;6187053;23;20028;-85
2021/01/06 04:51:48;;;;;;;45.13;21.75;;;;;;;;;;6186630;23;20021;-85
2021/01/06 04:54:23;;;;;;;44.72;21.10;;;;;;;;;;6186136;23;20031;-85
2021/01/06 04:57:00;;;;;;;46.97;21.05;;;;;;;;;;6187198;23;20028;-85
2021/01/06 04:59:48;;;;;;;49.22;22.85;;;;;;;;;;6186596;23;20028;-85
2021/01/06 05:02:21;;;;;;;52.13;23.88;;;;;;;;;;6181472;23;20021;-85
2021/01/06 05:05:04;;;;;;;52.58;22.52;;;;;;;;;;6186322;23;20045;-85
2021/01/06 05:07:42;;;;;;;47.13;20.88;;;;;;;;;;6186662;23;20083;-85
2021/01/06 05:10:24;;;;;;;48.10;21.48;;;;;;;;;;6187173;23;20027;-85
2021/01/06 05:12:51;;;;;;;43.38;20.88;;;;;;;;;;6186945;23;20029;-85
2021/01/06 05:15:29;;;;;;;47.05;24.65;;;;;;;;;;6186834;23;20339;-85
2021/01/06 05:17:55;;;;;;;51.58;22.15;;;;;;;;;;6186721;23;20036;-85
2021/01/06 05:20:21;;;;;;;53.17;22.33;;;;;;;;;;6186747;23;20439;-85
2021/01/06 05:22:47;;;;;;;45.97;21.35;;;;;;;;;;6186053;23;20013;-85
2021/01/06 05:25:16;;;;;;;45.33;22.35;;;;;;;;;;6186842;23;20055;-85
2021/01/06 05:27:42;;;;;;;51.20;21.65;;;;;;;;;;6186861;23;20458;-85
2021/01/06 05:30:19;;;;;;;49.95;21.80;;;;;;;;;;6186258;23;20017;-85
2021/01/06 05:32:45;;;;;;;54.22;24.15;;;;;;;;;;6186543;23;20021;-86
2021/01/06 05:35:16;;;;;;;54.00;23.85;;;;;;;;;;6186549;23;20354;-85
2021/01/06 05:37:44;;;;;;;44.58;21.75;;;;;;;;;;6186237;23;20025;-85
2021/01/06 05:40:12;;;;;;;56.60;24.45;;;;;;;;;;6186021;23;20040;-85
2021/01/06 05:42:42;;;;;;;58.47;24.38;;;;;;;;;;6186498;23;20097;-85
2021/01/06 05:45:09;;;;;;;50.35;23.40;;;;;;;;;;6186326;23;20470;-85
2021/01/06 05:47:38;;;;;;;53.17;24.77;;;;;;;;;;6186222;23;20092;-85
2021/01/06 05:50:08;;;;;;;51.05;23.92;;;;;;;;;;6185557;23;20032;-85
2021/01/06 05:52:34;;;;;;;56.55;24.65;;;;;;;;;;6186367;23;20021;-85
2021/01/06 05:55:02;;;;;;;49.47;22.15;;;;;;;;;;6185985;23;20029;-85
2021/01/06 05:57:47;;;;;;;51.30;21.77;;;;;;;;;;6186131;23;20091;-85
2021/01/06 06:00:26;;;;;;;48.10;22.02;;;;;;;;;;6186179;23;20016;-85
2021/01/06 06:03:22;;;;;;;54.75;22.38;;;;;;;;;;6187439;23;20021;-86
2021/01/06 06:05:57;;;;;;;53.65;23.48;;;;;;;;;;6189666;23;20021;-85
2021/01/06 06:08:50;;;;;;;54.63;22.70;;;;;;;;;;6190290;23;20072;-86
2021/01/06 06:11:46;;;;;;;57.58;24.92;;;;;;;;;;6190022;23;20040;-86
2021/01/06 06:14:50;;;;;;;50.35;24.10;;;;;;;;;;6189715;23;20020;-85
2021/01/06 06:17:26;;;;;;;48.72;23.20;;;;;;;;;;6189930;23;20021;-86
2021/01/06 06:20:13;;;;;;;55.05;24.45;;;;;;;;;;6189857;23;20021;-86
2021/01/06 06:22:39;;;;;;;;;;;;;;;;;;6189344;23;20072;-86
2021/01/06 06:25:07;;;;;;;51.38;24.02;;;;;;;;;;6189492;23;19975;-86
2021/01/06 06:27:41;;;;;;;52.50;23.88;;;;;;;;;;6188265;23;20017;-85
2021/01/06 06:30:29;;;;;;;59.70;25.42;;;;;;;;;;6188654;23;20017;-86
2021/01/06 06:32:55;;;;;;;46.03;23.08;;;;;;;;;;6189424;23;20025;-86
2021/01/06 06:35:24;;;;;;;61.42;26.02;;;;;;;;;;6189383;23;20021;-86
2021/01/06 06:37:52;;;;;;;60.70;26.60;;;;;;;;;;6189565;23;20635;-86
2021/01/06 06:40:19;;;;;;;65.57;26.45;;;;;;;;;;6189499;23;20021;-86
2021/01/06 06:42:54;;;;;;;60.95;25.77;;;;;;;;;;6189998;23;20025;-86
2021/01/06 06:45:50;;;;;;;59.83;26.45;;;;;;;;;;6189565;23;20311;-86
2021/01/06 06:48:28;;;;;;;48.00;21.95;;;;;;;;;;6189765;23;20028;-86
2021/01/06 06:50:58;;;;;;;53.88;25.65;;;;;;;;;;6189177;23;20021;-86
2021/01/06 06:53:31;;;;;;;49.90;23.80;;;;;;;;;;6189860;23;20438;-86
2021/01/06 06:56:07;;;;;;;48.60;23.85;;;;;;;;;;6189224;23;20021;-86
2021/01/06 06:58:39;;;;;;;57.35;24.17;;;;;;;;;;6189761;23;20017;-86
2021/01/06 07:01:09;;;;;;;56.35;26.05;;;;;;;;;;6189574;23;20032;-86
2021/01/06 07:03:36;;;;;;;55.13;26.00;;;;;;;;;;6189589;23;20312;-86
2021/01/06 07:06:02;;;;;;;58.83;27.27;;;;;;;;;;6189294;23;20024;-86
2021/01/06 07:08:31;;;;;;;50.58;24.27;;;;;;;;;;6189350;23;20024;-86
2021/01/06 07:11:01;;;;;;;56.53;24.17;;;;;;;;;;6189553;23;20027;-86
2021/01/06 07:13:28;;;;;;;53.25;25.88;;;;;;;;;;6189303;23;20080;-86
2021/01/06 07:15:58;;;;;;;52.42;23.63;;;;;;;;;;6189439;23;20040;-87
2021/01/06 07:18:36;;;;;;;54.47;25.58;;;;;;;;;;6190087;23;20025;-86
2021/01/06 07:21:16;;;;;;;51.60;23.10;;;;;;;;;;6190327;23;20071;-86
2021/01/06 07:23:47;;;;;;;56.20;25.77;;;;;;;;;;6189416;23;20017;-86
2021/01/06 07:26:15;;;;;;;53.97;25.40;;;;;;;;;;6189681;23;20021;-87
2021/01/06 07:28:41;;;;;;;59.90;27.05;;;;;;;;;;6190220;23;20347;-86
2021/01/06 07:31:11;;;;;;;56.20;25.45;;;;;;;;;;6189938;23;20021;-86
2021/01/06 07:33:40;;;;;;;59.67;24.67;;;;;;;;;;6189366;23;20076;-87
2021/01/06 07:36:10;;;;;;;61.33;24.85;;;;;;;;;;6188971;23;20454;-87
2021/01/06 07:38:36;;;;;;;55.17;24.58;;;;;;;;;;6189237;23;20021;-87
2021/01/06 07:41:03;;;;;;;60.75;26.40;;;;;;;;;;6188917;23;20032;-87
2021/01/06 07:43:30;;;;;;;53.72;24.65;;;;;;;;;;6188726;23;20020;-87
2021/01/06 07:46:18;;;;;;;58.88;26.58;;;;;;;;;;6189535;23;20046;-87
2021/01/06 07:48:55;;;;;;;54.58;27.48;;;;;;;;;;6189210;23;20139;-87
2021/01/06 07:51:29;;;;;;;49.33;24.10;;;;;;;;;;6189209;23;20023;-87
2021/01/06 07:54:02;;;;;;;61.55;26.63;;;;;;;;;;6188606;23;20453;-87
2021/01/06 07:56:34;;;;;;;53.97;24.52;;;;;;;;;;6188515;23;20024;-87
2021/01/06 07:59:01;;;;;;;56.90;26.23;;;;;;;;;;6189176;23;20028;-87
2021/01/06 08:01:34;;;;;;;52.47;25.77;;;;;;;;;;6188573;23;20021;-87
2021/01/06 08:04:06;;;;;;;55.90;25.60;;;;;;;;;;6188192;23;20020;-87
2021/01/06 08:06:47;;;;;;;57.30;24.98;;;;;;;;;;6187982;23;20338;-87
2021/01/06 08:09:29;;;;;;;52.30;25.20;;;;;;;;;;6188524;23;20025;-87
2021/01/06 08:11:55;;;;;;;57.30;25.33;;;;;;;;;;6188105;23;20335;-87
2021/01/06 08:14:25;;;;;;;55.97;26.42;;;;;;;;;;6188532;23;20025;-87
2021/01/06 08:16:55;;;;;;;54.85;27.27;;;;;;;;;;6188334;23;20017;-87
2021/01/06 08:19:24;;;;;;;57.22;27.58;;;;;;;;;;6188038;23;20016;-86
2021/01/06 08:22:02;;;;;;;54.67;26.55;;;;;;;;;;6187680;23;20393;-87
2021/01/06 08:24:31;;;;;;;74.07;37.08;;;;;;;;;;6188294;23;20021;-87
2021/01/06 08:27:00;;;;;;;65.38;30.27;;;;;;;;;;6188227;23;20032;-86
2021/01/06 08:29:28;;;;;;;54.50;25.13;;;;;;;;;;6187935;23;20028;-87
2021/01/06 08:31:57;;;;;;;50.25;25.75;;;;;;;;;;6187992;23;20017;-87
2021/01/06 08:34:32;;;;;;;50.47;24.23;;;;;;;;;;6187802;23;20343;-87
2021/01/06 08:37:01;;;;;;;51.90;24.38;;;;;;;;;;6188587;23;20021;-87
2021/01/06 08:39:28;;;;;;;53.38;26.25;;;;;;;;;;6188812;23;20067;-87
2021/01/06 08:41:57;;;;;;;50.17;24.90;;;;;;;;;;6187410;23;20021;-87
2021/01/06 08:44:33;;;;;;;58.17;26.88;;;;;;;;;;6188405;23;20024;-87
2021/01/06 08:47:01;;;;;;;53.10;25.95;;;;;;;;;;6187962;23;20081;-86
2021/01/06 08:49:30;;;;;;;55.13;25.02;;;;;;;;;;6187760;23;20023;-87
2021/01/06 08:52:12;;;;;;;47.58;25.25;;;;;;;;;;6188612;23;20396;-87
2021/01/06 08:54:39;;;;;;;53.53;24.67;;;;;;;;;;6187712;23;20021;-87
2021/01/06 08:57:06;;;;;;;52.35;25.63;;;;;;;;;;6188102;23;20021;-86
2021/01/06 08:59:37;;;;;;;48.15;24.30;;;;;;;;;;6188220;23;20029;-87
2021/01/06 09:02:11;;;;;;;48.33;24.00;;;;;;;;;;6186493;23;20013;-87
2021/01/06 09:04:39;;;;;;;57.60;27.10;;;;;;;;;;6187111;23;20021;-87
2021/01/06 09:07:14;;;;;;;52.80;25.77;;;;;;;;;;6187648;23;20035;-87
2021/01/06 09:09:56;;;;;;;47.20;24.80;;;;;;;;;;6186741;23;20021;-87
2021/01/06 09:12:42;;;;;;;62.15;28.15;;;;;;;;;;6187960;23;20044;-87
2021/01/06 09:15:19;;;;;;;54.55;26.70;;;;;;;;;;6186354;23;20021;-88
2021/01/06 09:17:51;;;;;;;54.33;26.73;;;;;;;;;;6188916;23;20466;-88
2021/01/06 09:20:22;;;;;;;54.90;28.80;;;;;;;;;;6188835;23;20048;-88
2021/01/06 09:22:49;;;;;;;56.60;27.05;;;;;;;;;;6189308;23;20027;-88
2021/01/06 09:25:17;;;;;;;62.28;27.95;;;;;;;;;;6188080;23;20021;-88
2021/01/06 09:27:46;;;;;;;57.90;27.30;;;;;;;;;;6188169;23;20032;-88
2021/01/06 09:30:22;;;;;;;52.08;25.58;;;;;;;;;;6188075;23;20024;-88
2021/01/06 09:32:48;;;;;;;56.58;24.85;;;;;;;;;;6189306;23;20025;-88
2021/01/06 09:35:17;;;;;;;52.80;24.52;;;;;;;;;;6191252;23;20021;-88
2021/01/06 09:37:51;;;;;;;51.22;26.15;;;;;;;;;;6190769;23;20028;-88
2021/01/06 09:40:19;;;;;;;48.40;24.48;;;;;;;;;;6191911;23;20013;-88
2021/01/06 09:42:46;;;;;;;54.15;24.42;;;;;;;;;;6192215;23;20024;-86
2021/01/06 09:45:19;;;;;;;51.88;24.33;;;;;;;;;;6192214;23;20109;-88
2021/01/06 09:47:47;;;;;;;51.35;26.70;;;;;;;;;;6192773;23;20024;-87
2021/01/06 09:50:19;;;;;;;55.80;25.55;;;;;;;;;;6192409;23;20021;-86
2021/01/06 09:52:47;;;;;;;54.58;26.15;;;;;;;;;;6192998;23;20630;-87
2021/01/06 09:55:16;;;;;;;64.25;28.60;;;;;;;;;;6193206;23;20055;-88
2021/01/06 09:57:42;;;;;;;49.15;24.98;;;;;;;;;;6193233;23;20017;-86
2021/01/06 10:00:16;;;;;;;59.92;25.50;;;;;;;;;;6192658;23;20036;-87
2021/01/06 10:02:48;;;;;;;58.90;26.80;;;;;;;;;;6192901;23;20029;-86
2021/01/06 10:05:23;;;;;;;58.58;26.02;;;;;;;;;;6193268;23;20410;-85
2021/01/06 10:07:51;;;;;;;52.60;26.10;;;;;;;;;;6193050;23;20025;-88
2021/01/06 10:10:22;;;;;;;49.08;23.42;;;;;;;;;;6193156;23;20021;-86
2021/01/06 10:12:59;;;;;;;53.60;24.33;;;;;;;;;;6192881;23;20025;-86
2021/01/06 10:16:05;;;;;;;49.10;25.25;;;;;;;;;;6192762;23;20023;-86
2021/01/06 10:18:37;;;;;;;50.00;23.60;;;;;;;;;;6187194;23;20020;-86
2021/01/06 10:21:12;;;;;;;56.50;25.10;;;;;;;;;;6192494;23;20043;-86
2021/01/06 10:24:00;;;;;;;53.83;24.48;;;;;;;;;;6193370;23;20018;-87
2021/01/06 10:26:36;;;;;;;49.30;24.05;;;;;;;;;;6191647;23;20466;-87
2021/01/06 10:29:09;;;;;;;;;;;;;;;;;;6193109;23;20025;-87
2021/01/06 10:31:59;;;;;;;47.60;23.63;;;;;;;;;;6192275;23;19916;-87
2021/01/06 10:34:33;;;;;;;50.00;23.88;;;;;;;;;;6191297;23;20075;-87
2021/01/06 10:37:15;;;;;;;48.80;23.67;;;;;;;;;;6191509;23;20092;-87
2021/01/06 10:39:43;;;;;;;57.95;25.88;;;;;;;;;;6190969;23;20032;-86
2021/01/06 10:42:35;;;;;;;51.65;25.48;;;;;;;;;;6190747;23;20029;-87
2021/01/06 10:45:06;;;;;;;48.83;23.83;;;;;;;;;;6190463;23;20067;-87
2021/01/06 10:47:53;;;;;;;50.95;23.80;;;;;;;;;;6188750;23;20052;-87
2021/01/06 10:50:43;;;;;;;46.85;23.23;;;;;;;;;;6188643;23;20023;-87
2021/01/06 10:53:17;;;;;;;53.42;26.17;;;;;;;;;;6189013;23;20021;-87
2021/01/06 10:55:47;;;;;;;49.15;23.30;;;;;;;;;;6190074;23;20021;-87
2021/01/06 10:58:20;;;;;;;52.15;24.65;;;;;;;;;;6190177;23;20025;-87
2021/01/06 11:00:50;;;;;;;53.90;24.73;;;;;;;;;;6189135;23;20095;-87
2021/01/06 11:03:35;;;;;;;51.55;23.92;;;;;;;;;;6190508;23;20425;-87
2021/01/06 11:06:13;;;;;;;44.83;21.92;;;;;;;;;;6191145;23;20025;-87
2021/01/06 11:09:00;;;;;;;50.70;24.20;;;;;;;;;;6190324;23;20031;-86
2021/01/06 11:11:41;;;;;;;;;;;;;;;;;;6191200;23;20089;-86
2021/01/06 11:14:32;;;;;;;41.85;20.52;;;;;;;;;;6191330;23;20348;-86
2021/01/06 11:17:19;;;;;;;50.45;23.73;;;;;;;;;;6190660;23;20021;-86
2021/01/06 11:19:47;;;;;;;44.22;22.17;;;;;;;;;;6188999;23;20071;-88
2021/01/06 11:22:33;;;;;;;48.67;24.30;;;;;;;;;;6188946;23;20023;-88
2021/01/06 11:25:02;;;;;;;44.55;21.92;;;;;;;;;;6188890;23;20507;-88
2021/01/06 11:27:37;;;;;;;44.10;21.90;;;;;;;;;;6187751;23;20021;-88
2021/01/06 11:30:17;;;;;;;41.80;20.48;;;;;;;;;;6187968;23;20335;-88
2021/01/06 11:32:43;;;;;;;39.35;20.60;;;;;;;;;;6188181;23;20021;-88
2021/01/06 11:35:28;;;;;;;41.47;21.27;;;;;;;;;;6188046;23;20027;-88
2021/01/06 11:37:55;;;;;;;49.10;23.23;;;;;;;;;;6186210;23;20060;-88
2021/01/06 11:40:50;;;;;;;42.13;21.55;;;;;;;;;;6188839;23;20027;-88
2021/01/06 11:43:35;;;;;;;38.88;19.88;;;;;;;;;;6189004;23;20458;-88
2021/01/06 11:46:12;;;;;;;41.33;20.85;;;;;;;;;;6189934;23;20021;-88
2021/01/06 11:48:38;;;;;;;48.30;21.98;;;;;;;;;;6188541;23;20021;-87
2021/01/06 11:51:20;;;;;;;43.85;20.20;;;;;;;;;;6186603;23;20080;-88
2021/01/06 11:53:47;;;;;;;44.15;21.55;;;;;;;;;;6187888;23;20029;-86
2021/01/06 11:56:17;;;;;;;41.58;21.17;;;;;;;;;;6188125;23;20021;-88
2021/01/06 11:59:11;;;;;;;47.13;25.42;;;;;;;;;;6187977;23;20438;-88
2021/01/06 12:01:54;;;;;;;42.30;22.23;;;;;;;;;;6186394;23;20043;-87
2021/01/06 12:04:54;;;;;;;38.28;20.17;;;;;;;;;;6188573;23;20076;-87
2021/01/06 12:07:39;;;;;;;38.22;18.90;;;;;;;;;;6189422;23;20021;-87
2021/01/06 12:10:23;;;;;;;39.40;19.80;;;;;;;;;;6188783;23;20342;-85
2021/01/06 12:12:55;;;;;;;41.95;20.55;;;;;;;;;;6189086;23;20021;-88
2021/01/06 12:15:44;;;;;;;37.47;20.65;;;;;;;;;;6188752;23;20021;-88
2021/01/06 12:18:26;;;;;;;29.33;17.25;;;;;;;;;;6189332;23;20028;-87
2021/01/06 12:20:52;;;;;;;36.88;18.30;;;;;;;;;;6189229;23;20022;-87
2021/01/06 12:23:40;;;;;;;30.17;17.00;;;;;;;;;;6189274;23;20464;-87
2021/01/06 12:26:41;;;;;;;27.63;15.88;;;;;;;;;;6181938;23;20021;-88
2021/01/06 12:29:10;;;;;;;30.70;16.30;;;;;;;;;;6187683;23;20021;-86
2021/01/06 12:31:44;;;;;;;31.10;16.70;;;;;;;;;;6188178;23;20450;-87
2021/01/06 12:34:16;;;;;;;28.35;16.42;;;;;;;;;;6186876;23;20014;-86
2021/01/06 12:37:03;;;;;;;32.72;17.05;;;;;;;;;;6187146;23;20039;-88
2021/01/06 12:39:32;;;;;;;31.10;15.90;;;;;;;;;;6186443;23;20025;-85
2021/01/06 12:42:03;;;;;;;29.63;15.68;;;;;;;;;;6186329;23;20032;-87
2021/01/06 12:44:32;;;;;;;32.75;18.23;;;;;;;;;;6186600;23;20021;-87
2021/01/06 12:47:01;;;;;;;30.40;17.27;;;;;;;;;;6188563;23;20017;-86
2021/01/06 12:49:40;;;;;;;29.60;16.70;;;;;;;;;;6186843;23;20025;-86
2021/01/06 12:52:18;;;;;;;31.95;17.17;;;;;;;;;;6185860;23;20028;-86
2021/01/06 12:54:46;;;;;;;30.77;16.80;;;;;;;;;;6186498;23;20021;-86
2021/01/06 12:57:15;;;;;;;31.98;17.45;;;;;;;;;;6184908;23;20395;-87
2021/01/06 12:59:47;;;;;;;32.90;16.63;;;;;;;;;;6186987;23;20028;-87
2021/01/06 13:02:24;;;;;;;31.58;17.10;;;;;;;;;;6186809;23;20024;-86
2021/01/06 13:04:51;;;;;;;34.40;17.58;;;;;;;;;;6189624;23;20013;-86
2021/01/06 13:07:23;;;;;;;32.45;16.90;;;;;;;;;;6189469;23;20028;-87
2021/01/06 13:09:56;;;;;;;31.92;17.90;;;;;;;;;;6190239;23;20025;-87
2021/01/06 13:12:29;;;;;;;30.83;17.15;;;;;;;;;;6190107;23;20025;-86
2021/01/06 13:15:03;;;;;;;36.28;17.70;;;;;;;;;;6189067;23;20028;-86
2021/01/06 13:17:33;;;;;;;32.90;17.00;;;;;;;;;;6189182;23;20032;-87
2021/01/06 13:20:24;;;;;;;28.98;16.23;;;;;;;;;;6188883;23;20099;-87
2021/01/06 13:22:54;;;;;;;28.90;16.35;;;;;;;;;;6191997;23;20021;-87
2021/01/06 13:25:33;;;;;;;32.05;17.48;;;;;;;;;;6193140;23;20070;-87
2021/01/06 13:28:06;;;;;;;30.13;15.85;;;;;;;;;;6194340;23;20028;-87
2021/01/06 13:30:46;;;;;;;28.17;16.73;;;;;;;;;;6193315;23;20324;-87
2021/01/06 13:33:38;;;;;;;26.48;15.75;;;;;;;;;;6193780;23;20090;-87
2021/01/06 13:36:24;;;;;;;26.85;14.32;;;;;;;;;;6192442;23;20025;-88
2021/01/06 13:39:00;;;;;;;30.45;16.50;;;;;;;;;;6192213;23;20025;-87
2021/01/06 13:41:31;;;;;;;26.63;14.88;;;;;;;;;;6191489;23;20112;-87
2021/01/06 13:44:01;;;;;;;28.65;15.57;;;;;;;;;;6193464;23;20021;-87
2021/01/06 13:46:46;;;;;;;29.30;15.45;;;;;;;;;;6193498;23;20021;-86
2021/01/06 13:49:17;;;;;;;27.98;16.73;;;;;;;;;;6190667;23;20454;-85
2021/01/06 13:51:50;;;;;;;27.27;16.45;;;;;;;;;;6191880;23;20057;-86
2021/01/06 13:54:25;;;;;;;31.33;17.05;;;;;;;;;;6192468;23;20035;-86
2021/01/06 13:56:55;;;;;;;30.05;16.15;;;;;;;;;;6192988;23;20307;-86
2021/01/06 13:59:31;;;;;;;30.27;14.90;;;;;;;;;;6192639;23;20103;-86
2021/01/06 14:01:59;;;;;;;29.65;16.23;;;;;;;;;;6191542;23;20472;-86
2021/01/06 14:04:27;;;;;;;27.83;16.05;;;;;;;;;;6190967;23;20032;-86
2021/01/06 14:06:59;;;;;;;25.52;15.40;;;;;;;;;;6192794;23;20017;-87
2021/01/06 14:09:33;;;;;;;26.85;14.68;;;;;;;;;;6193547;23;20091;-87
2021/01/06 14:12:19;;;;;;;25.20;15.02;;;;;;;;;;6189515;23;20044;-87
2021/01/06 14:14:51;;;;;;;27.35;15.73;;;;;;;;;;6190903;23;20025;-86
2021/01/06 14:17:47;;;;;;;34.90;15.70;;;;;;;;;;6191130;23;20021;-87
2021/01/06 14:20:30;;;;;;;27.17;15.25;;;;;;;;;;6191283;23;20021;-87
2021/01/06 14:23:14;;;;;;;28.77;15.35;;;;;;;;;;6191785;23;20025;-87
2021/01/06 14:26:00;;;;;;;25.33;14.23;;;;;;;;;;6192924;23;20610;-87
2021/01/06 14:28:30;;;;;;;27.90;15.05;;;;;;;;;;6193514;23;20025;-86
2021/01/06 14:31:04;;;;;;;30.45;17.42;;;;;;;;;;6193319;23;20024;-87
2021/01/06 14:33:42;;;;;;;27.77;15.57;;;;;;;;;;6194008;23;20025;-86
2021/01/06 14:36:18;;;;;;;26.63;15.63;;;;;;;;;;6193679;23;20025;-87
2021/01/06 14:38:50;;;;;;;27.73;16.02;;;;;;;;;;6192986;23;20021;-86
2021/01/06 14:41:57;;;;;;;26.52;15.55;;;;;;;;;;6192528;23;20021;-87
2021/01/06 14:45:02;;;;;;;30.75;15.15;;;;;;;;;;6194108;23;20025;-87
2021/01/06 14:47:40;;;;;;;30.27;15.68;;;;;;;;;;6189820;23;20032;-86
2021/01/06 14:50:21;;;;;;;28.88;16.33;;;;;;;;;;6195285;23;20080;-87